createdAt,value
2023-01-11T04:42:19.502Z,0.50
2023-01-11T04:57:25.140Z,0.70
2023-01-11T05:12:29.640Z,1.23
2023-01-11T05:27:34.411Z,1.80
2023-01-11T05:42:38.825Z,1.80
2023-01-11T05:57:44.176Z,3.03
2023-01-11T06:13:12.952Z,2.83
2023-01-11T06:28:17.370Z,4.43
2023-01-11T06:43:22.501Z,4.27
2023-01-11T06:58:27.760Z,5.47
2023-01-11T07:13:32.353Z,4.50
2023-01-11T07:28:36.821Z,5.40
2023-01-11T07:43:41.369Z,4.03
2023-01-11T07:58:45.924Z,4.13
2023-01-11T08:14:08.017Z,5.33
2023-01-11T08:29:12.491Z,6.57
2023-01-11T08:44:28.966Z,5.07
2023-01-11T08:59:37.755Z,5.63
2023-01-11T09:14:42.675Z,6.50
2023-01-11T09:29:48.355Z,6.13
2023-01-11T09:44:56.703Z,5.03
2023-01-11T10:00:09.882Z,5.37
2023-01-11T10:18:23.666Z,4.50
2023-01-11T10:31:06.769Z,5.13
2023-01-11T10:46:15.039Z,5.33
2023-01-11T11:01:31.135Z,5.40
2023-01-11T11:16:53.492Z,4.47
2023-01-11T11:31:59.549Z,4.93
2023-01-11T11:47:06.205Z,5.43
2023-01-11T12:02:23.883Z,6.67
2023-01-11T12:17:28.656Z,6.10
2023-01-11T12:32:59.204Z,5.83
2023-01-11T12:48:19.802Z,4.77
2023-01-11T13:03:43.056Z,5.17
2023-01-11T13:18:53.626Z,4.70
2023-01-11T13:34:02.433Z,5.27
2023-01-11T13:49:14.736Z,4.40
2023-01-11T14:04:24.702Z,4.53
2023-01-11T14:19:34.991Z,6.70
2023-01-11T14:35:04.192Z,4.77
2023-01-11T14:50:18.763Z,6.30
2023-01-11T15:05:48.275Z,4.17
2023-01-11T15:20:55.862Z,6.20
2023-01-11T15:36:06.806Z,5.40
2023-01-11T15:51:26.901Z,4.30
2023-01-11T16:06:44.673Z,4.13
2023-01-11T16:21:51.247Z,3.63
2023-01-11T16:36:55.875Z,9.50
2023-01-11T16:52:00.869Z,4.83
2023-01-11T17:07:13.918Z,4.83
2023-01-11T17:22:22.782Z,6.37
2023-01-11T17:37:27.775Z,5.50
2023-01-11T17:52:43.901Z,5.30
2023-01-11T18:07:57.462Z,6.77
2023-01-11T18:23:05.413Z,7.30
2023-01-11T18:38:16.220Z,8.20
2023-01-11T18:53:20.625Z,6.00
2023-01-11T19:08:25.082Z,6.50
2023-01-11T19:23:29.647Z,6.50
2023-01-11T19:38:35.538Z,7.47
2023-01-11T19:53:40.013Z,7.23
2023-01-11T20:08:45.183Z,6.33
2023-01-11T20:23:49.869Z,12.10
2023-01-11T20:38:54.811Z,7.43
2023-01-11T20:53:59.381Z,7.23
2023-01-11T21:09:04.976Z,5.83
